September 28, 2022

Time Code Weather Temp. Visibility Ceiling Wind METAR/SPECI
01:30
I
12 °C 5 km 700 ft 240° 240° 8 kt METAR LFLW 272330Z AUTO 24008KT 210V270 5000 -RA BR OVC007/// ///TCU 12/11 Q1009
01:00
I
12 °C 7 km 700 ft 250° 250° 9 kt METAR LFLW 272300Z AUTO 25009KT 220V280 7000 +DZ OVC007/// ///TCU 12/11 Q1009
00:30
I
11 °C 6 km 700 ft 240° 240° 7 kt METAR LFLW 272230Z AUTO 24007KT 210V270 6000 -RA BKN007 OVC011 11/11 Q1010
00:00
I
11 °C 4.1 km 700 ft 240° 240° 7 kt METAR LFLW 272200Z AUTO 24007KT 4100 -RA BR OVC007/// ///TCU 11/11 Q1010

September 27, 2022

Time Code Weather Temp. Visibility Ceiling Wind METAR/SPECI
23:30
I
11 °C 5 km 700 ft 240° 240° 6 kt METAR LFLW 272130Z AUTO 24006KT 200V280 5000 -RA BR OVC007/// ///TCU 11/11 Q1011
23:00
I
11 °C 5 km 600 ft 250° 250° 5 kt METAR LFLW 272100Z AUTO 25005KT 210V290 5000 -RA BR OVC006 11/10 Q1011
22:30
I
10 °C 5 km 600 ft 260° 260° 7 kt METAR LFLW 272030Z AUTO 26007KT 5000 -RA BR BKN006 BKN011 OVC016 10/10 Q1011
22:00
L
10 °C 5 km 400 ft 280° 280° 5 kt METAR LFLW 272000Z AUTO 28005KT 230V320 5000 -RA BR OVC004 10/10 Q1012
21:30
I
11 °C 5 km 500 ft 270° 270° 4 kt METAR LFLW 271930Z AUTO 27004KT 240V320 5000 -DZ BR OVC005 11/10 Q1012
21:00
I
11 °C 5 km 700 ft 270° 270° 7 kt METAR LFLW 271900Z AUTO 27007KT 240V300 5000 -DZ BR BKN007 OVC011 11/10 Q1012
20:30
I
11 °C 8 km 800 ft 260° 260° 6 kt METAR LFLW 271830Z AUTO 26006KT 230V300 8000 -RADZ OVC008 11/10 Q1012
20:00
I
10 °C 10 km+ 800 ft 250° 250° 4 kt METAR LFLW 271800Z AUTO 25004KT 210V300 9999 OVC008 10/10 Q1012
19:30
M
11 °C 10 km+ 1,000 ft 280° 280° 5 kt METAR LFLW 271730Z AUTO 28005KT 250V310 9999 OVC010 11/09 Q1012
19:00
M
11 °C 10 km+ 2,200 ft 280° 280° 6 kt METAR LFLW 271700Z AUTO 28006KT 240V320 9999 FEW006 SCT011 BKN022 11/09 Q1012 TEMPO SCT023TCU BECMG 4000 RA
18:30
I
10 °C 10 km+ 700 ft 280° 280° 6 kt METAR LFLW 271630Z AUTO 28006KT 230V320 9999 OVC007 10/10 Q1012 TEMPO SCT023TCU BECMG 4000 RA
18:00
I
10 °C 4.6 km 1,200 ft 270° 270° 6 kt METAR LFLW 271600Z AUTO 27006KT 240V310 4600 -DZ BR BKN012 OVC018 10/09 Q1012 TEMPO SCT023TCU BECMG 9999 NSW
17:30
M
11 °C 10 km+ 1,200 ft 270° 270° 7 kt METAR LFLW 271530Z AUTO 27007KT 230V320 9999 BKN012 BKN019 OVC025 11/08 Q1012 TEMPO SHRA SCT023TCU
17:00
M
11 °C 10 km+ 1,200 ft 270° 270° 5 kt METAR LFLW 271500Z AUTO 27005KT 230V300 9999 BKN012 OVC019 11/09 Q1012 TEMPO SHRA SCT023TCU
16:30
M
11 °C 10 km+ 1,200 ft 280° 280° 7 kt METAR LFLW 271430Z AUTO 28007KT 250V310 9999 BKN012 BKN026 BKN033 11/08 Q1012 TEMPO SHRA SCT023TCU
16:00
M
10 °C 10 km+ 1,900 ft 270° 270° 11 kt METAR LFLW 271400Z AUTO 27011KT 230V290 9999 -RA FEW013 BKN019 BKN025 10/08 Q1012 TEMPO SHRA SCT023TCU
15:30
M
11 °C 10 km+ 2,400 ft 280° 280° 8 kt METAR LFLW 271330Z AUTO 28008KT 230V320 9999 BKN024 OVC031 11/07 Q1012 TEMPO SHRA SCT023TCU
15:00
M
11 °C 10 km+ 2,900 ft 280° 280° 7 kt METAR LFLW 271300Z AUTO 28007KT 250V320 9999 SCT023 BKN029 BKN034 11/07 Q1012 TEMPO SHRA SCT023TCU
14:30
V
11 °C 10 km+ 3,800 ft 270° 270° 9 kt METAR LFLW 271230Z AUTO 27009KT 230V310 9999 SCT029 OVC038 11/06 Q1012 TEMPO SHRA SCT023TCU
14:00
V
11 °C 10 km+ 3,900 ft 290° 290° 8 kt METAR LFLW 271200Z AUTO 29008KT 250V330 9999 SCT031 BKN039 OVC045 11/05 Q1012 TEMPO SHRA SCT023TCU
13:30
V
11 °C 10 km+ 3,300 ft 270° 270° 11 kt METAR LFLW 271130Z AUTO 27011KT 240V310 9999 FEW019 SCT025 BKN033 11/06 Q1012 TEMPO SHRA SCT023TCU
13:00
M
11 °C 10 km+ 2,400 ft 280° 280° 9 kt METAR LFLW 271100Z AUTO 28009KT 240V320 9999 SCT019 BKN024 OVC043 11/06 Q1013 TEMPO SHRA SCT023TCU
12:00
M
10 °C 10 km+ 2,100 ft 270° 270° 12 kt METAR LFLW 271000Z AUTO 27012KT 230V300 9999 SCT016 BKN021 BKN028 10/07 Q1012 NOSIG
11:30
V
10 °C 10 km+ 3,200 ft 260° 260° 8 kt METAR LFLW 270930Z AUTO 26008KT 220V320 9999 SCT015 BKN032 OVC045 10/07 Q1012 NOSIG
11:00
M
10 °C 10 km+ 1,300 ft 280° 280° 8 kt METAR LFLW 270900Z AUTO 28008KT 250V320 9999 BKN013 BKN019 OVC046 10/07 Q1012 BECMG BKN025
10:30
M
10 °C 10 km+ 1,300 ft 280° 280° 7 kt METAR LFLW 270830Z AUTO 28007KT 240V320 9999 FEW009 BKN013 BKN020 10/08 Q1012 BECMG BKN025
10:00
M
10 °C 10 km+ 1,000 ft 280° 280° 8 kt METAR LFLW 270800Z AUTO 28008KT 240V320 9999 BKN010 BKN019 OVC046 10/08 Q1012 BECMG BKN025
09:30
I
10 °C 10 km+ 700 ft 290° 290° 6 kt METAR LFLW 270730Z AUTO 29006KT 250V320 9999 BKN007 BKN013 OVC019 10/08 Q1011 BECMG BKN025
09:00
I
9 °C 10 km+ 500 ft 280° 280° 6 kt METAR LFLW 270700Z AUTO 28006KT 250V330 9999 OVC005 09/08 Q1011 NOSIG
08:30
I
9 °C 10 km+ 500 ft 290° 290° 6 kt METAR LFLW 270630Z AUTO 29006KT 240V340 9999 BKN005 BKN010 OVC027 09/08 Q1011 NOSIG
08:00
M
8 °C 10 km+ 1,400 ft 290° 290° 5 kt METAR LFLW 270600Z AUTO 29005KT 250V330 9999 SCT008 BKN014 OVC049 08/08 Q1011 TEMPO BKN007
07:30
V
8 °C 10 km+ 4,900 ft 280° 280° 4 kt METAR LFLW 270530Z AUTO 28004KT 240V330 9999 FEW007 SCT011 OVC049 08/07 Q1011 TEMPO BKN007
07:00
V
9 °C 10 km+ 4,800 ft 310° 310° 7 kt METAR LFLW 270500Z AUTO 31007KT 270V340 9999 FEW008 OVC048 09/08 Q1010
06:30
I
9 °C 10 km+ 800 ft 300° 300° 6 kt METAR LFLW 270430Z AUTO 30006KT 260V330 9999 BKN008 OVC043 09/08 Q1010
06:00
I
9 °C 10 km+ 900 ft 300° 300° 6 kt METAR LFLW 270400Z AUTO 30006KT 260V330 9999 OVC009 09/08 Q1010
05:30
I
9 °C 10 km+ 900 ft 300° 300° 6 kt METAR LFLW 270330Z AUTO 30006KT 250V330 9999 BKN009 BKN016 OVC047 09/08 Q1010
05:00
M
9 °C 10 km+ 1,000 ft 300° 300° 7 kt METAR LFLW 270300Z AUTO 30007KT 270V340 9999 BKN010 BKN018 OVC045 09/08 Q1009
04:30
M
10 °C 10 km+ 1,400 ft 310° 310° 7 kt METAR LFLW 270230Z AUTO 31007KT 260V340 9999 SCT007 BKN014 BKN020 10/08 Q1009
04:00
I
10 °C 10 km+ 700 ft 300° 300° 4 kt METAR LFLW 270200Z AUTO 30004KT 260V340 9999 OVC007 10/10 Q1009
03:30
I
10 °C 10 km+ 700 ft 290° 290° 8 kt METAR LFLW 270130Z AUTO 29008KT 250V330 9999 BKN007 OVC012 10/10 Q1009
03:00
M
10 °C 10 km+ 1,300 ft 270° 270° 8 kt METAR LFLW 270100Z AUTO 27008KT 230V320 9999 SCT009 BKN013 BKN020 10/09 Q1009
02:30
M
10 °C 10 km+ 1,900 ft 270° 270° 7 kt METAR LFLW 270030Z AUTO 27007KT 230V300 9999 FEW008 SCT012 BKN019 10/09 Q1009
02:00
M
11 °C 10 km+ 1,000 ft 270° 270° 8 kt METAR LFLW 270000Z AUTO 27008KT 230V320 9999 BKN010 BKN014 BKN023 11/10 Q1009
01:30
I
11 °C 10 km+ 800 ft 260° 260° 8 kt METAR LFLW 262330Z AUTO 26008KT 9999 -DZ BKN008 BKN014 BKN021 11/10 Q1009
01:00
I
10 °C 8 km 800 ft 250° 250° 8 kt METAR LFLW 262300Z AUTO 25008KT 8000 -RADZ BKN008 OVC013 10/10 Q1009
00:30
I
10 °C 4.2 km 600 ft 250° 250° 6 kt METAR LFLW 262230Z AUTO 25006KT 4200 -RA BR OVC006 10/09 Q1010
00:00
I
10 °C 5 km 900 ft 240° 240° 6 kt METAR LFLW 262200Z AUTO 24006KT 180V270 5000 -RA BR OVC009/// ///TCU 10/09 Q1010

September 26, 2022

Time Code Weather Temp. Visibility Ceiling Wind METAR/SPECI
23:30
M
10 °C 10 km+ 2,700 ft 240° 240° 5 kt METAR LFLW 262130Z AUTO 24005KT 200V280 9999 -RA FEW014/// SCT020/// BKN027/// ///CB 10/09 Q1010
23:00
M
11 °C 10 km+ 2,400 ft 250° 250° 6 kt METAR LFLW 262100Z AUTO 25006KT 230V310 9999 -RA FEW017/// OVC024/// ///TCU 11/09 Q1011
22:30
M
11 °C 10 km+ 2,800 ft 250° 250° 8 kt METAR LFLW 262030Z AUTO 25008KT 220V290 9999 -RA FEW021/// BKN028/// OVC035/// ///TCU 11/08 Q1011
22:00
V
13 °C 10 km+ 3,800 ft 260° 260° 11 kt METAR LFLW 262000Z AUTO 26011KT 220V290 9999 FEW030/// BKN038/// BKN045/// ///TCU 13/07 Q1011
21:30
V
13 °C 10 km+ 7,800 ft 240° 240° 6 kt METAR LFLW 261930Z AUTO 24006KT 200V270 9999 FEW032 SCT068 BKN078 13/07 Q1011
21:00
V
13 °C 10 km+ 7,000 ft 240° 240° 5 kt METAR LFLW 261900Z AUTO 24005KT 9999 FEW040 OVC070 13/07 Q1011
20:30
V
13 °C 10 km+ 6,000 ft 250° 250° 5 kt METAR LFLW 261830Z AUTO 25005KT 210V280 9999 FEW038 SCT049 BKN060 13/07 Q1011
20:00
V
13 °C 10 km+ 6,400 ft 240° 240° 6 kt METAR LFLW 261800Z AUTO 24006KT 210V280 9999 FEW045 BKN064 OVC082 13/07 Q1011
19:30
V
13 °C 10 km+ 6,000 ft 260° 260° 7 kt METAR LFLW 261730Z AUTO 26007KT 230V300 9999 FEW037 SCT046 BKN060 13/07 Q1011
19:00
V
13 °C 10 km+ 4,200 ft 260° 260° 8 kt METAR LFLW 261700Z AUTO 26008KT 230V290 9999 SCT035 BKN042 BKN058 13/07 Q1011 TEMPO 4000 RA
18:30
V
14 °C 10 km+ 6,200 ft 270° 270° 8 kt METAR LFLW 261630Z AUTO 27008KT 9999 FEW034 BKN062 BKN110 14/07 Q1011 TEMPO 4000 RA
18:00
V
14 °C 10 km+ 4,600 ft 270° 270° 7 kt METAR LFLW 261600Z AUTO 27007KT 240V330 9999 SCT035 BKN046 BKN062 14/07 Q1012 NOSIG
17:30
V
14 °C 10 km+ 5,600 ft 280° 280° 8 kt METAR LFLW 261530Z AUTO 28008KT 240V330 9999 SCT037 SCT047 BKN056 14/06 Q1012 NOSIG
17:00
V
14 °C 10 km+ 3,600 ft 280° 280° 7 kt METAR LFLW 261500Z AUTO 28007KT 230V320 9999 BKN036 BKN043 OVC058 14/06 Q1012 NOSIG
16:30
V
14 °C 10 km+ 3,500 ft 260° 260° 9 kt METAR LFLW 261430Z AUTO 26009KT 230V310 9999 BKN035 BKN047 OVC058 14/07 Q1012 NOSIG
16:00
V
14 °C 10 km+ 5,600 ft 280° 280° 8 kt METAR LFLW 261400Z AUTO 28008KT 250V330 9999 FEW034 SCT049 BKN056 14/06 Q1012 NOSIG
15:30
V
14 °C 10 km+ 4,200 ft 280° 280° 9 kt METAR LFLW 261330Z AUTO 28009KT 240V320 9999 SCT031 BKN042 OVC052 14/06 Q1012 NOSIG
15:00
V
14 °C 10 km+ 5,600 ft 280° 280° 7 kt METAR LFLW 261300Z AUTO 28007KT 240V320 9999 FEW031 SCT044 BKN056 14/07 Q1013 NOSIG
14:30
V
14 °C 10 km+ 11,000 ft 270° 270° 8 kt METAR LFLW 261230Z AUTO 27008KT 230V320 9999 SCT056 OVC110 14/07 Q1013 NOSIG
14:00
M
13 °C 10 km+ 2,500 ft 290° 290° 6 kt METAR LFLW 261200Z AUTO 29006KT 250V350 9999 BKN025 OVC033 13/07 Q1013 NOSIG
13:30
V
13 °C 10 km+ 3,300 ft 300° 300° 7 kt METAR LFLW 261130Z AUTO 30007KT 250V360 9999 FEW026 BKN033 BKN043 13/07 Q1014 NOSIG
13:00
M
13 °C 10 km+ 2,100 ft 300° 300° 5 kt METAR LFLW 261100Z AUTO 30005KT 230V010 9999 BKN021 BKN032 BKN040 13/07 Q1014 NOSIG
12:30
M
12 °C 10 km+ 1,400 ft 290° 290° 6 kt METAR LFLW 261030Z AUTO 29006KT 240V330 9999 BKN014 BKN022 BKN030 12/08 Q1014 BECMG BKN018
12:00
M
11 °C 10 km+ 1,200 ft 280° 280° 4 kt METAR LFLW 261000Z AUTO 28004KT 240V330 9999 BKN012 BKN018 11/08 Q1014 BECMG BKN018
11:30
I
10 °C 10 km+ 900 ft Var Var 2 kt METAR LFLW 260930Z AUTO VRB02KT 9999 BKN009 OVC014 10/08 Q1014 BECMG BKN018
11:00
I
9 °C 10 km+ 500 ft Var Var 2 kt METAR LFLW 260900Z AUTO VRB02KT 9999 BKN005 OVC011 09/08 Q1014 BECMG BKN018
10:30
L
9 °C 10 km+ 400 ft 360° 360° 4 kt METAR LFLW 260830Z AUTO 36004KT 340V040 9999 OVC004 09/08 Q1014 BECMG BKN018
10:00
L
8 °C 4.2 km - Var Var 3 kt METAR LFLW 260800Z AUTO VRB03KT 4200 BR VV/// 08/08 Q1014 BECMG 9999 NSW BKN012
09:30
L
8 °C 1.2 km - 340° 340° 4 kt METAR LFLW 260730Z AUTO 34004KT 300V360 1400 1200 R15/1600U BR VV/// 08/08 Q1014 BECMG 9999 NSW BKN012
09:00
L
8 °C 1.2 km - Var Var 3 kt METAR LFLW 260700Z AUTO VRB03KT 1200 R15/1300D BR VV/// 08/08 Q1014 BECMG 9999 NSW BKN012
08:30
L
8 °C 1.3 km - 350° 350° 4 kt METAR LFLW 260630Z AUTO 35004KT 1500 1300 R15/2000U BR VV/// 08/08 Q1014 BECMG 9999 NSW BKN012
08:00
L
8 °C 4.8 km 200 ft 330° 330° 3 kt METAR LFLW 260600Z AUTO 33003KT 240V020 4800 BR OVC002 08/08 Q1014 TEMPO 0400 FG VV///
07:30
L
8 °C 5 km 200 ft 300° 300° 4 kt METAR LFLW 260530Z AUTO 30004KT 260V340 5000 BR OVC002 08/08 Q1014 TEMPO 0400 FG VV///
07:00
L
9 °C 8 km 300 ft 290° 290° 3 kt METAR LFLW 260500Z AUTO 29003KT 250V320 8000 OVC003 09/08 Q1014
06:30
L
9 °C 10 km+ 400 ft Var Var 3 kt METAR LFLW 260430Z AUTO VRB03KT 9999 OVC004 09/09 Q1014
06:00
I
9 °C 9 km 500 ft Var Var 2 kt METAR LFLW 260400Z AUTO VRB02KT 9000 OVC005 09/09 Q1014
05:30
L
9 °C 8 km 400 ft Var Var 2 kt METAR LFLW 260330Z AUTO VRB02KT 8000 OVC004 09/09 Q1014
05:00
L
9 °C 6 km 300 ft Var Var 2 kt METAR LFLW 260300Z AUTO VRB02KT 6000 OVC003 09/09 Q1014
04:30
L
9 °C 1 km - Var Var 2 kt METAR LFLW 260230Z AUTO VRB02KT 1000 R15/1200U BCFG VV/// 09/09 Q1015
04:00
L
9 °C 1.7 km - 320° 320° 3 kt METAR LFLW 260200Z AUTO 32003KT 270V360 1700 BR VV/// 09/09 Q1015
03:30
L
10 °C 1.7 km - 310° 310° 4 kt METAR LFLW 260130Z AUTO 31004KT 250V350 1700 BR VV/// 10/09 Q1015
03:00
L
10 °C 5 km - Var Var 1 kt METAR LFLW 260100Z AUTO VRB01KT 5000 BR VV/// 10/09 Q1015
02:30
L
9 °C 4.6 km - Var Var 1 kt METAR LFLW 260030Z AUTO VRB01KT 4600 BR VV/// 09/09 Q1015
02:00
L
10 °C 8 km 300 ft Var 000° 0 kt METAR LFLW 260000Z AUTO 00000KT 8000 BKN003 OVC064 10/09 Q1015
01:30
L
10 °C 7 km 300 ft Var 000° 0 kt METAR LFLW 252330Z AUTO 00000KT 7000 OVC003 10/10 Q1016
01:00
L
9 °C 7 km 200 ft Var Var 1 kt METAR LFLW 252300Z AUTO VRB01KT 7000 BKN002 OVC070 09/09 Q1016
00:30
M
10 °C 7 km 7,200 ft Var 000° 0 kt METAR LFLW 252230Z AUTO 00000KT 7000 FEW002 OVC072 10/09 Q1016
00:00
L
10 °C 10 km+ 200 ft Var 000° 0 kt METAR LFLW 252200Z AUTO 00000KT 9999 BKN002 OVC074 10/10 Q1016

September 25, 2022

Time Code Weather Temp. Visibility Ceiling Wind METAR/SPECI
23:30
L
10 °C 10 km+ - Var Var 2 kt METAR LFLW 252130Z AUTO VRB02KT 9999 VV/// 10/10 Q1016
23:00
L
9 °C 8 km - Var 000° 0 kt METAR LFLW 252100Z AUTO 00000KT 8000 VV/// 09/09 Q1016
22:30
L
10 °C 10 km+ 300 ft 270° 270° 3 kt METAR LFLW 252030Z AUTO 27003KT 9999 BKN003 BKN054 OVC074 10/09 Q1016
22:00
L
10 °C 10 km+ 300 ft Var Var 1 kt METAR LFLW 252000Z AUTO VRB01KT 9999 BKN003 BKN072 10/09 Q1016
21:30
V
10 °C 10 km+ - Var Var 2 kt METAR LFLW 251930Z AUTO VRB02KT CAVOK 10/10 Q1016
21:00
V
11 °C 10 km+ 7,800 ft 300° 300° 3 kt METAR LFLW 251900Z AUTO 30003KT 250V340 9999 FEW021 SCT048 BKN078 11/10 Q1016
20:30
V
11 °C 10 km+ - 310° 310° 3 kt METAR LFLW 251830Z AUTO 31003KT 270V340 CAVOK 11/10 Q1016
20:00
V
11 °C 10 km+ - 330° 330° 4 kt METAR LFLW 251800Z AUTO 33004KT 270V020 CAVOK 11/09 Q1015
19:30
V
12 °C 10 km+ 5,000 ft 310° 310° 4 kt METAR LFLW 251730Z AUTO 31004KT 250V350 9999 FEW036 BKN050 OVC074 12/10 Q1015
19:00
V
12 °C 10 km+ 3,400 ft Var Var 3 kt METAR LFLW 251700Z AUTO VRB03KT 9999 FEW010 BKN034 BKN058 12/10 Q1015 TEMPO SHRA
18:30
V
12 °C 10 km+ 3,000 ft Var Var 3 kt METAR LFLW 251630Z AUTO VRB03KT 9999 BKN030/// OVC074/// ///TCU 12/10 Q1015 TEMPO SHRA BECMG BKN030
18:00
V
12 °C 10 km+ - Var Var 2 kt METAR LFLW 251600Z AUTO VRB02KT 9999 ///TCU 12/09 Q1015 TEMPO SHRA BECMG BKN030
17:30
M
11 °C 5 km 4,100 ft 350° 350° 8 kt METAR LFLW 251530Z AUTO 35008KT 5000 RA BR SCT031/// BKN041/// BKN050/// ///CB 11/10 Q1015 BECMG BKN030
17:00
V
13 °C 10 km+ 3,400 ft 350° 350° 13 kt METAR LFLW 251500Z AUTO 35013KT 300V020 9999 BKN034/// BKN042/// OVC052/// ///CB 13/09 Q1015 TEMPO SHRA BECMG BKN030
Older data

We and third parties follow your internet behavior on our website with cookies. If you continue, we assume you agree with our cookie policy. Learn more